createdAt,value
2018-03-31T00:01:28.332Z,2.67
2018-03-31T00:03:55.378Z,2.90
2018-03-31T00:06:22.401Z,2.77
2018-03-31T00:08:49.476Z,2.80
2018-03-31T00:11:16.491Z,2.80
2018-03-31T00:13:43.506Z,2.90
2018-03-31T00:16:11.358Z,2.90
2018-03-31T00:18:38.380Z,3.07
2018-03-31T00:21:05.485Z,2.70
2018-03-31T00:23:33.342Z,2.20
2018-03-31T00:26:00.387Z,2.73
2018-03-31T00:28:27.415Z,2.33
2018-03-31T00:30:54.410Z,2.93
2018-03-31T00:33:22.273Z,2.90
2018-03-31T00:35:49.329Z,2.67
2018-03-31T00:38:16.320Z,2.60
2018-03-31T00:40:43.428Z,3.50
2018-03-31T00:43:10.423Z,3.23
2018-03-31T00:45:37.423Z,2.97
2018-03-31T00:48:04.431Z,2.77
2018-03-31T00:50:31.435Z,2.73
2018-03-31T00:52:58.454Z,2.63
2018-03-31T00:55:25.505Z,2.50
2018-03-31T00:57:53.240Z,2.73
2018-03-31T01:00:20.247Z,2.57
2018-03-31T01:02:47.267Z,2.90
2018-03-31T01:05:14.442Z,2.60
2018-03-31T01:07:41.451Z,2.90
2018-03-31T01:10:08.451Z,2.63
2018-03-31T01:12:35.457Z,2.50
2018-03-31T01:15:02.490Z,2.47
2018-03-31T01:17:29.524Z,2.27
2018-03-31T01:19:56.531Z,2.30
2018-03-31T01:22:24.318Z,2.40
2018-03-31T01:24:51.404Z,2.40
2018-03-31T01:27:18.443Z,4.37
2018-03-31T01:29:45.532Z,2.57
2018-03-31T01:32:12.554Z,2.40
2018-03-31T01:34:39.649Z,2.40
2018-03-31T01:37:06.653Z,2.40
2018-03-31T01:39:33.672Z,2.30
2018-03-31T01:42:01.526Z,2.30
2018-03-31T01:44:28.530Z,2.27
2018-03-31T01:46:55.542Z,2.20
2018-03-31T01:49:23.402Z,2.30
2018-03-31T01:51:50.415Z,2.23
2018-03-31T01:54:17.514Z,2.50
2018-03-31T01:56:44.553Z,2.93
2018-03-31T01:59:11.552Z,2.43
2018-03-31T02:01:38.566Z,2.40
2018-03-31T02:04:05.620Z,2.33
2018-03-31T02:06:32.665Z,2.10
2018-03-31T02:08:59.734Z,2.30
2018-03-31T02:11:26.729Z,2.77
2018-03-31T02:13:53.733Z,2.20
2018-03-31T02:16:20.740Z,2.50
2018-03-31T02:18:47.766Z,2.27
2018-03-31T02:21:15.598Z,2.70
2018-03-31T02:23:42.556Z,2.23
2018-03-31T02:26:09.626Z,2.30
2018-03-31T02:28:36.619Z,2.47
2018-03-31T02:31:03.649Z,2.43
2018-03-31T02:33:31.489Z,2.23
2018-03-31T02:35:58.500Z,2.27
2018-03-31T02:38:25.597Z,2.40
2018-03-31T02:40:52.605Z,2.20
2018-03-31T02:43:19.620Z,2.60
2018-03-31T02:45:46.661Z,2.40
2018-03-31T02:48:13.720Z,2.60
2018-03-31T02:50:40.720Z,2.40
2018-03-31T02:53:07.776Z,2.70
2018-03-31T02:55:34.878Z,2.53
2018-03-31T02:58:01.890Z,2.83
2018-03-31T03:00:28.989Z,2.40
2018-03-31T03:02:56.088Z,2.50
2018-03-31T03:05:23.087Z,2.17
2018-03-31T03:07:50.141Z,2.10
2018-03-31T03:10:17.140Z,2.23
2018-03-31T03:12:44.139Z,2.30
2018-03-31T03:15:11.145Z,2.20
2018-03-31T03:17:38.922Z,2.60
2018-03-31T03:20:05.946Z,2.30
2018-03-31T03:22:32.953Z,3.10
2018-03-31T03:25:00.037Z,2.23
2018-03-31T03:27:27.100Z,2.30
2018-03-31T03:29:54.105Z,2.23
2018-03-31T03:32:21.134Z,2.20
2018-03-31T03:34:48.165Z,2.10
2018-03-31T03:37:15.168Z,2.30
2018-03-31T03:39:42.160Z,2.00
2018-03-31T03:42:09.165Z,2.37
2018-03-31T03:44:36.269Z,2.10
2018-03-31T03:47:03.278Z,3.43
2018-03-31T03:49:30.382Z,2.30
2018-03-31T03:51:57.383Z,2.40
2018-03-31T03:54:24.383Z,2.23
2018-03-31T03:56:51.397Z,2.20
2018-03-31T03:59:18.405Z,5.53
2018-03-31T04:01:45.445Z,8.17
2018-03-31T04:04:12.458Z,20.53
2018-03-31T04:06:39.545Z,15.60
2018-03-31T04:09:06.608Z,11.53
2018-03-31T04:11:33.620Z,18.57
2018-03-31T04:14:00.639Z,23.23
2018-03-31T04:16:28.400Z,20.27
2018-03-31T04:18:55.400Z,25.83
2018-03-31T04:21:22.415Z,28.47
2018-03-31T04:23:50.192Z,30.03
2018-03-31T04:26:18.031Z,27.73
2018-03-31T04:28:45.039Z,23.47
2018-03-31T04:31:12.111Z,26.47
2018-03-31T04:33:39.136Z,27.60
2018-03-31T04:36:06.149Z,24.97
2018-03-31T04:38:33.198Z,29.67
2018-03-31T04:41:00.298Z,22.17
2018-03-31T04:43:27.405Z,27.67
2018-03-31T04:45:54.428Z,26.73
2018-03-31T04:48:21.439Z,23.93
2018-03-31T04:50:49.207Z,28.50
2018-03-31T04:53:16.984Z,33.37
2018-03-31T04:55:44.758Z,28.07
2018-03-31T04:58:12.633Z,26.10
2018-03-31T05:00:39.616Z,25.43
2018-03-31T05:03:06.620Z,26.33
2018-03-31T05:05:34.391Z,24.17
2018-03-31T05:08:01.390Z,24.73
2018-03-31T05:10:28.400Z,26.93
2018-03-31T05:12:56.182Z,26.90
2018-03-31T05:15:23.957Z,21.77
2018-03-31T05:17:51.789Z,28.13
2018-03-31T05:20:18.847Z,24.90
2018-03-31T05:22:45.900Z,23.67
2018-03-31T05:25:12.968Z,22.70
2018-03-31T05:27:39.932Z,19.87
2018-03-31T05:30:07.792Z,20.73
2018-03-31T05:32:35.552Z,23.27
2018-03-31T05:35:02.601Z,18.83
2018-03-31T05:37:29.602Z,23.33
2018-03-31T05:39:56.601Z,24.27
2018-03-31T05:42:23.605Z,18.27
2018-03-31T05:44:50.597Z,22.83
2018-03-31T05:47:17.674Z,23.87
2018-03-31T05:49:44.681Z,21.50
2018-03-31T05:52:11.777Z,22.60
2018-03-31T05:54:38.784Z,14.53
2018-03-31T05:57:05.787Z,17.77
2018-03-31T05:59:32.806Z,20.00
2018-03-31T06:01:59.894Z,15.57
2018-03-31T06:04:26.945Z,17.37
2018-03-31T06:06:53.945Z,17.93
2018-03-31T06:09:20.948Z,15.33
2018-03-31T06:11:47.988Z,15.20
2018-03-31T06:14:15.007Z,15.03
2018-03-31T06:16:42.008Z,13.43
2018-03-31T06:19:09.784Z,10.07
2018-03-31T06:21:37.549Z,18.30
2018-03-31T06:24:04.588Z,12.87
2018-03-31T06:26:31.658Z,12.80
2018-03-31T06:28:58.667Z,14.10
2018-03-31T06:31:25.670Z,11.43
2018-03-31T06:33:52.670Z,11.17
2018-03-31T06:36:19.692Z,11.67
2018-03-31T06:38:47.463Z,9.23
2018-03-31T06:41:15.330Z,11.27
2018-03-31T06:43:43.092Z,7.47
2018-03-31T06:46:10.106Z,8.27
2018-03-31T06:48:37.142Z,10.33
2018-03-31T06:51:04.153Z,8.93
2018-03-31T06:53:31.160Z,8.17
2018-03-31T06:55:58.300Z,7.97
2018-03-31T06:58:25.339Z,7.33
2018-03-31T07:00:52.333Z,6.87
2018-03-31T07:03:20.111Z,5.60
2018-03-31T07:05:47.105Z,6.63
2018-03-31T07:08:14.895Z,6.60
2018-03-31T07:10:42.022Z,7.00
2018-03-31T07:13:09.036Z,6.93
2018-03-31T07:15:36.043Z,5.53
2018-03-31T07:18:03.888Z,7.33
2018-03-31T07:20:30.887Z,4.87
2018-03-31T07:22:57.993Z,5.10
2018-03-31T07:25:25.014Z,6.43
2018-03-31T07:27:52.108Z,4.93
2018-03-31T07:30:19.150Z,7.37
2018-03-31T07:32:46.184Z,4.43
2018-03-31T07:35:13.203Z,6.23
2018-03-31T07:37:41.041Z,4.80
2018-03-31T07:40:08.086Z,4.77
2018-03-31T07:42:35.114Z,5.13
2018-03-31T07:45:02.144Z,5.77
2018-03-31T07:47:29.254Z,4.60
2018-03-31T07:49:56.308Z,5.07
2018-03-31T07:52:23.333Z,4.10
2018-03-31T07:54:50.406Z,4.20
2018-03-31T07:57:17.422Z,5.30
2018-03-31T07:59:44.441Z,5.33
2018-03-31T08:02:12.284Z,3.83
2018-03-31T08:04:39.301Z,3.70
2018-03-31T08:07:06.406Z,4.83
2018-03-31T08:09:34.278Z,8.73
2018-03-31T08:12:01.348Z,4.47
2018-03-31T08:14:29.229Z,6.00
2018-03-31T08:16:57.076Z,4.30
2018-03-31T08:19:24.082Z,3.77
2018-03-31T08:21:51.183Z,12.47
2018-03-31T08:24:18.236Z,11.33
2018-03-31T08:26:45.312Z,5.50
2018-03-31T08:29:13.093Z,4.30
2018-03-31T08:31:40.852Z,3.90
2018-03-31T08:34:08.619Z,4.30
2018-03-31T08:36:36.485Z,6.37
2018-03-31T08:39:04.260Z,5.50
2018-03-31T08:41:32.124Z,5.23
2018-03-31T08:43:59.126Z,4.90
2018-03-31T08:46:26.127Z,5.70
2018-03-31T08:48:53.172Z,3.77
2018-03-31T08:51:20.205Z,3.73
2018-03-31T08:53:47.282Z,7.07
2018-03-31T08:56:15.871Z,4.50
2018-03-31T08:58:42.889Z,4.13
2018-03-31T09:01:09.897Z,7.53
2018-03-31T09:03:37.725Z,3.73
2018-03-31T09:06:04.733Z,8.23
2018-03-31T09:08:32.576Z,3.70
2018-03-31T09:10:59.577Z,3.63
2018-03-31T09:13:26.587Z,3.40
2018-03-31T09:15:53.633Z,3.00
2018-03-31T09:18:22.221Z,3.40
2018-03-31T09:20:49.223Z,3.57
2018-03-31T09:23:16.223Z,3.33
2018-03-31T09:25:43.279Z,3.60
2018-03-31T09:28:11.076Z,3.50
2018-03-31T09:30:38.844Z,5.80
2018-03-31T09:33:06.694Z,4.30
2018-03-31T09:35:33.715Z,3.97
2018-03-31T09:38:00.805Z,6.77
2018-03-31T09:40:27.839Z,4.90
2018-03-31T09:42:54.925Z,3.73
2018-03-31T09:45:21.944Z,3.00
2018-03-31T09:47:48.969Z,2.97
2018-03-31T09:50:16.743Z,6.40
2018-03-31T09:52:43.765Z,2.70
2018-03-31T09:55:11.540Z,3.47
2018-03-31T09:57:39.383Z,2.67
2018-03-31T10:00:06.392Z,3.10
2018-03-31T10:02:33.416Z,2.83
2018-03-31T10:05:01.202Z,2.90
2018-03-31T10:07:28.225Z,5.33
2018-03-31T10:09:55.216Z,2.90
2018-03-31T10:12:22.333Z,4.00
2018-03-31T10:14:49.339Z,3.03
2018-03-31T10:17:16.434Z,3.17
2018-03-31T10:19:43.439Z,3.30
2018-03-31T10:22:10.545Z,6.27
2018-03-31T10:24:37.542Z,4.30
2018-03-31T10:27:04.563Z,2.80
2018-03-31T10:29:32.356Z,2.43
2018-03-31T10:31:59.378Z,2.70
2018-03-31T10:34:26.380Z,3.07
2018-03-31T10:36:53.483Z,2.80
2018-03-31T10:39:21.052Z,3.10
2018-03-31T10:41:48.065Z,2.90
2018-03-31T10:44:16.146Z,2.70
2018-03-31T10:46:43.148Z,3.00
2018-03-31T10:49:10.920Z,3.23
2018-03-31T10:51:38.686Z,2.50
2018-03-31T10:54:06.463Z,2.10
2018-03-31T10:56:34.301Z,2.50
2018-03-31T10:59:01.382Z,2.90
2018-03-31T11:01:28.383Z,2.67
2018-03-31T11:03:55.504Z,2.23
2018-03-31T11:06:23.291Z,2.20
2018-03-31T11:08:50.291Z,2.20
2018-03-31T11:11:17.308Z,2.30
2018-03-31T11:13:44.473Z,2.57
2018-03-31T11:16:11.582Z,2.40
2018-03-31T11:18:39.403Z,2.40
2018-03-31T11:21:06.405Z,1.90
2018-03-31T11:23:34.278Z,2.00
2018-03-31T11:26:02.061Z,2.20
2018-03-31T11:28:29.922Z,2.87
2018-03-31T11:30:57.778Z,2.33
2018-03-31T11:33:24.816Z,2.17
2018-03-31T11:35:51.826Z,2.03
2018-03-31T11:38:18.946Z,2.33
2018-03-31T11:40:47.536Z,2.37
2018-03-31T11:43:14.555Z,2.13
2018-03-31T11:45:41.642Z,3.90
2018-03-31T11:48:08.693Z,1.87
2018-03-31T11:50:35.707Z,4.87
2018-03-31T11:53:02.703Z,2.30
2018-03-31T11:55:29.740Z,2.10
2018-03-31T11:57:56.758Z,2.20
2018-03-31T12:00:23.764Z,2.10
2018-03-31T12:02:50.805Z,2.40
2018-03-31T12:05:17.833Z,2.00
2018-03-31T12:07:44.853Z,3.50
2018-03-31T12:10:11.969Z,1.90
2018-03-31T12:12:38.981Z,2.90
2018-03-31T12:15:05.990Z,2.33
2018-03-31T12:17:33.774Z,3.53
2018-03-31T12:20:01.632Z,8.63
2018-03-31T12:22:28.639Z,2.10
2018-03-31T12:24:55.630Z,3.20
2018-03-31T12:27:23.487Z,2.37
2018-03-31T12:29:50.483Z,3.93
2018-03-31T12:32:18.295Z,7.97
2018-03-31T12:34:45.375Z,5.73
2018-03-31T12:37:12.381Z,6.40
2018-03-31T12:39:39.472Z,2.93
2018-03-31T12:42:06.479Z,3.57
2018-03-31T12:44:33.504Z,3.60
2018-03-31T12:47:00.509Z,2.10
2018-03-31T12:49:27.628Z,2.10
2018-03-31T12:51:55.471Z,2.50
2018-03-31T12:54:22.486Z,4.43
2018-03-31T12:56:49.572Z,3.83
2018-03-31T12:59:16.643Z,4.07
2018-03-31T13:01:44.506Z,2.73
2018-03-31T13:04:11.512Z,2.23
2018-03-31T13:06:38.618Z,1.80
2018-03-31T13:09:05.663Z,2.97
2018-03-31T13:11:32.696Z,2.00
2018-03-31T13:13:59.691Z,3.50
2018-03-31T13:16:27.471Z,1.97
2018-03-31T13:18:55.240Z,3.90
2018-03-31T13:21:23.098Z,2.00
2018-03-31T13:23:50.890Z,1.90
2018-03-31T13:26:18.739Z,2.67
2018-03-31T13:28:45.792Z,3.13
2018-03-31T13:31:12.802Z,13.23
2018-03-31T13:33:39.827Z,3.60
2018-03-31T13:36:07.599Z,2.40
2018-03-31T13:38:34.600Z,3.10
2018-03-31T13:41:01.612Z,3.07
2018-03-31T13:43:28.631Z,5.87
2018-03-31T13:45:56.425Z,3.83
2018-03-31T13:48:24.192Z,4.47
2018-03-31T13:50:51.983Z,2.47
2018-03-31T13:53:18.986Z,3.40
2018-03-31T13:55:46.016Z,2.07
2018-03-31T13:58:13.101Z,3.07
2018-03-31T14:00:40.171Z,1.57
2018-03-31T14:03:07.932Z,2.30
2018-03-31T14:05:34.979Z,2.80
2018-03-31T14:08:01.984Z,1.87
2018-03-31T14:10:29.034Z,5.23
2018-03-31T14:12:56.042Z,2.50
2018-03-31T14:15:23.095Z,3.20
2018-03-31T14:17:50.100Z,3.33
2018-03-31T14:20:17.213Z,2.30
2018-03-31T14:22:45.008Z,3.63
2018-03-31T14:25:12.034Z,1.93
2018-03-31T14:27:39.044Z,3.60
2018-03-31T14:30:06.126Z,2.20
2018-03-31T14:32:33.188Z,12.90
2018-03-31T14:35:00.235Z,3.30
2018-03-31T14:37:28.451Z,7.07
2018-03-31T14:39:56.297Z,8.37
2018-03-31T14:42:23.297Z,5.13
2018-03-31T14:44:50.397Z,8.00
2018-03-31T14:47:17.465Z,3.47
2018-03-31T14:49:45.161Z,5.43
2018-03-31T14:52:12.173Z,3.43
2018-03-31T14:54:39.233Z,1.83
2018-03-31T14:57:06.231Z,4.77
2018-03-31T14:59:33.277Z,3.83
2018-03-31T15:02:00.289Z,4.63
2018-03-31T15:04:27.293Z,4.73
2018-03-31T15:06:55.961Z,3.00
2018-03-31T15:09:23.811Z,2.53
2018-03-31T15:11:51.677Z,4.10
2018-03-31T15:14:18.734Z,5.70
2018-03-31T15:16:45.736Z,3.30
2018-03-31T15:19:12.729Z,2.37
2018-03-31T15:21:41.233Z,5.57
2018-03-31T15:24:08.256Z,10.33
2018-03-31T15:26:35.282Z,4.63
2018-03-31T15:29:02.279Z,2.90
2018-03-31T15:31:29.300Z,5.23
2018-03-31T15:33:56.397Z,1.90
2018-03-31T15:36:23.411Z,5.90
2018-03-31T15:38:50.430Z,5.90
2018-03-31T15:41:18.223Z,1.90
2018-03-31T15:43:45.231Z,4.10
2018-03-31T15:46:12.280Z,1.97
2018-03-31T15:48:39.305Z,1.80
2018-03-31T15:51:06.500Z,2.10
2018-03-31T15:53:33.508Z,1.70
2018-03-31T15:56:00.507Z,1.77
2018-03-31T15:58:27.551Z,1.80
2018-03-31T16:00:55.334Z,5.50
2018-03-31T16:03:22.327Z,2.93
2018-03-31T16:05:49.336Z,2.10
2018-03-31T16:08:16.346Z,2.07
2018-03-31T16:10:43.360Z,1.93
2018-03-31T16:13:11.245Z,2.80
2018-03-31T16:15:38.243Z,1.97
2018-03-31T16:18:05.312Z,2.00
2018-03-31T16:20:32.339Z,1.87
2018-03-31T16:22:59.346Z,3.50
2018-03-31T16:25:27.147Z,2.30
2018-03-31T16:27:54.258Z,2.30
2018-03-31T16:30:22.113Z,2.00
2018-03-31T16:32:49.912Z,1.73
2018-03-31T16:35:17.726Z,1.90
2018-03-31T16:37:44.771Z,3.63
2018-03-31T16:40:11.824Z,1.70
2018-03-31T16:42:39.650Z,2.10
2018-03-31T16:45:07.505Z,2.00
2018-03-31T16:47:34.559Z,7.50
2018-03-31T16:50:01.610Z,4.43
2018-03-31T16:52:28.659Z,3.00
2018-03-31T16:54:55.667Z,4.37
2018-03-31T16:57:22.690Z,13.93
2018-03-31T16:59:49.688Z,1.87
2018-03-31T17:02:16.712Z,4.43
2018-03-31T17:04:44.556Z,4.77
2018-03-31T17:07:11.571Z,3.47
2018-03-31T17:09:38.655Z,6.43
2018-03-31T17:12:05.667Z,2.50
2018-03-31T17:14:32.805Z,1.87
2018-03-31T17:16:59.832Z,3.07
2018-03-31T17:19:26.847Z,2.70
2018-03-31T17:21:53.858Z,5.77
2018-03-31T17:24:21.633Z,5.80
2018-03-31T17:26:49.417Z,3.67
2018-03-31T17:29:16.461Z,3.67
2018-03-31T17:31:43.482Z,3.80
2018-03-31T17:34:10.541Z,2.57
2018-03-31T17:36:37.637Z,2.37
2018-03-31T17:39:04.743Z,2.73
2018-03-31T17:41:31.842Z,3.47
2018-03-31T17:43:58.852Z,2.60
2018-03-31T17:46:25.854Z,3.33
2018-03-31T17:48:52.859Z,7.27
2018-03-31T17:51:19.872Z,7.90
2018-03-31T17:53:46.890Z,3.17
2018-03-31T17:56:14.673Z,3.40
2018-03-31T17:58:41.701Z,2.83
2018-03-31T18:01:08.697Z,4.40
2018-03-31T18:03:35.727Z,8.13
2018-03-31T18:06:02.756Z,4.63
2018-03-31T18:08:29.800Z,3.50
2018-03-31T18:10:56.868Z,2.50
2018-03-31T18:13:23.887Z,4.47
2018-03-31T18:15:50.918Z,6.77
2018-03-31T18:18:18.033Z,2.80
2018-03-31T18:20:45.055Z,5.50
2018-03-31T18:23:12.046Z,6.47
2018-03-31T18:25:39.895Z,4.90
2018-03-31T18:28:07.054Z,3.90
2018-03-31T18:30:34.824Z,4.97
2018-03-31T18:33:02.623Z,3.60
2018-03-31T18:35:30.489Z,2.87
2018-03-31T18:37:58.264Z,7.93
2018-03-31T18:40:26.051Z,2.90
2018-03-31T18:42:53.183Z,2.83
2018-03-31T18:45:21.065Z,5.63
2018-03-31T18:47:48.837Z,24.53
2018-03-31T18:50:16.682Z,3.93
2018-03-31T18:52:43.716Z,4.47
2018-03-31T18:55:10.740Z,4.60
2018-03-31T18:57:37.818Z,8.00
2018-03-31T19:00:04.892Z,4.97
2018-03-31T19:02:32.778Z,6.00
2018-03-31T19:04:59.860Z,5.27
2018-03-31T19:07:26.870Z,10.50
2018-03-31T19:09:53.884Z,7.60
2018-03-31T19:12:21.005Z,8.97
2018-03-31T19:14:48.856Z,6.50
2018-03-31T19:17:15.894Z,2.93
2018-03-31T19:19:42.924Z,4.27
2018-03-31T19:22:10.022Z,5.73
2018-03-31T19:24:42.703Z,3.10
2018-03-31T19:27:09.720Z,6.07
2018-03-31T19:29:36.756Z,6.27
2018-03-31T19:32:03.781Z,4.30
2018-03-31T19:34:31.614Z,10.80
2018-03-31T19:36:59.328Z,11.03
2018-03-31T19:39:32.791Z,4.60
2018-03-31T19:41:59.817Z,7.53
2018-03-31T19:44:26.924Z,10.93
2018-03-31T19:46:53.980Z,8.63
2018-03-31T19:49:21.755Z,7.10
2018-03-31T19:51:49.609Z,8.83
2018-03-31T19:54:16.649Z,7.57
2018-03-31T19:56:43.657Z,3.70
2018-03-31T19:59:10.670Z,11.87
2018-03-31T20:01:37.688Z,6.60
2018-03-31T20:04:04.716Z,4.10
2018-03-31T20:06:31.748Z,7.37
2018-03-31T20:08:59.528Z,28.47
2018-03-31T20:11:27.387Z,19.47
2018-03-31T20:13:55.176Z,12.33
2018-03-31T20:16:22.214Z,17.60
2018-03-31T20:18:50.002Z,9.37
2018-03-31T20:21:17.806Z,8.73
2018-03-31T20:23:44.812Z,12.93
2018-03-31T20:26:12.601Z,12.07
2018-03-31T20:28:39.614Z,9.80
2018-03-31T20:31:06.646Z,10.10
2018-03-31T20:33:33.676Z,7.40
2018-03-31T20:36:00.702Z,6.43
2018-03-31T20:38:28.503Z,10.27
2018-03-31T20:40:55.617Z,15.63
2018-03-31T20:43:22.648Z,10.10
2018-03-31T20:45:49.785Z,21.83
2018-03-31T20:48:16.816Z,12.20
2018-03-31T20:50:43.830Z,14.73
2018-03-31T20:53:10.860Z,9.80
2018-03-31T20:55:37.922Z,9.53
2018-03-31T20:58:04.935Z,10.17
2018-03-31T21:00:32.040Z,11.13
2018-03-31T21:02:59.062Z,9.47
2018-03-31T21:05:26.102Z,9.60
2018-03-31T21:07:53.162Z,10.83
2018-03-31T21:10:20.187Z,8.93
2018-03-31T21:12:47.217Z,7.93
2018-03-31T21:15:14.232Z,7.70
2018-03-31T21:17:41.262Z,14.13
2018-03-31T21:20:08.365Z,6.73
2018-03-31T21:22:35.424Z,7.00
2018-03-31T21:25:02.477Z,6.83
2018-03-31T21:27:29.498Z,6.50
2018-03-31T21:29:56.590Z,7.10
2018-03-31T21:32:23.638Z,6.30
2018-03-31T21:34:50.662Z,6.20
2018-03-31T21:37:17.683Z,6.17
2018-03-31T21:39:44.704Z,6.43
2018-03-31T21:42:11.722Z,5.90
2018-03-31T21:44:38.741Z,5.97
2018-03-31T21:47:05.752Z,6.87
2018-03-31T21:49:33.527Z,6.63
2018-03-31T21:52:01.401Z,5.70
2018-03-31T21:54:28.465Z,5.90
2018-03-31T21:56:55.527Z,6.10
2018-03-31T21:59:23.307Z,5.90
2018-03-31T22:01:51.065Z,5.53
2018-03-31T22:04:18.837Z,5.10
2018-03-31T22:06:46.607Z,4.97
2018-03-31T22:09:14.392Z,5.23
2018-03-31T22:11:41.403Z,5.73
2018-03-31T22:14:14.050Z,6.23
2018-03-31T22:16:41.141Z,5.57
2018-03-31T22:19:08.216Z,5.17
2018-03-31T22:21:35.250Z,5.27
2018-03-31T22:24:02.255Z,5.00
2018-03-31T22:26:29.264Z,4.83
2018-03-31T22:28:56.269Z,4.50
2018-03-31T22:31:23.264Z,4.60
2018-03-31T22:33:50.301Z,4.90
2018-03-31T22:36:17.316Z,4.80
2018-03-31T22:38:44.323Z,4.50
2018-03-31T22:41:11.335Z,4.50
2018-03-31T22:43:38.505Z,4.37
2018-03-31T22:46:05.594Z,4.87
2018-03-31T22:48:32.642Z,4.23
2018-03-31T22:50:59.610Z,4.03
2018-03-31T22:53:27.462Z,3.93
2018-03-31T22:55:54.570Z,3.90
2018-03-31T22:58:21.601Z,4.07
2018-03-31T23:00:49.372Z,4.00
2018-03-31T23:03:17.220Z,4.13
2018-03-31T23:05:44.235Z,4.57
2018-03-31T23:08:11.679Z,3.87
2018-03-31T23:10:38.700Z,4.07
2018-03-31T23:13:05.702Z,3.80
2018-03-31T23:15:32.796Z,3.60
2018-03-31T23:17:59.857Z,4.20
2018-03-31T23:20:26.856Z,3.97
2018-03-31T23:22:53.874Z,5.80
2018-03-31T23:25:20.881Z,4.00
2018-03-31T23:27:47.893Z,3.60
2018-03-31T23:30:15.652Z,3.90
2018-03-31T23:32:43.448Z,3.70
2018-03-31T23:35:10.471Z,3.87
2018-03-31T23:37:38.258Z,3.37
2018-03-31T23:40:06.052Z,3.77
2018-03-31T23:42:33.055Z,3.97
2018-03-31T23:45:00.085Z,3.93
2018-03-31T23:47:27.260Z,3.97
2018-03-31T23:49:54.275Z,3.70
2018-03-31T23:52:21.285Z,3.70
2018-03-31T23:54:48.315Z,3.37
2018-03-31T23:57:15.319Z,3.90
2018-03-31T23:59:42.392Z,3.63
